Terminal Aerodrome Forecast
Issued by NWS

Home | Current Version | Previous Version | Text Only | Print | Product List | Glossary On
Versions: 1 2 3 4 5 6 7 8 9 10 11 12 13 14 15 16 17 18 19 20 21 22 23
925
FTUS46 KLOX 250531
TAFSBA
TAF
KSBA 250531Z 2506/2606 27008KT P6SM -SHRA SCT025 OVC070
     FM251200 VRB03KT P6SM -SHRA BKN025 OVC040
     FM251600 VRB03KT P6SM BKN025 BKN040
     FM251900 24014KT P6SM SCT025 BKN040
     FM252200 26014G22KT P6SM SCT040
     FM260400 35012KT P6SM BKN150=

USA.gov is the U.S. government's official web portal to all federal, state and local government web resources and services.